Weather at Holbaek (Ny Hagested) Airfield

Public forecast

Using degrees Celsius for public forecast. Weather courtesy of forecast.io.

Closest aviation weather report (METAR) to Holbaek (Ny Hagested) Airfield

Closest report is Ringsted Airfield, 19.7 nm (36.5 km) SSE.

2024/05/20 06:20 (retrieved 13 minutes ago)

EKRS 200620Z AUTO 09007KT 060V130 //// // NCD 17/12 Q1013

Closest aviation forecast (TAF) to Holbaek (Ny Hagested) Airfield

Closest forecast is Copenhagen Kastrup Airport, 36.3 nm (67.2 km) E.

2024/05/20 06:30 (retrieved 3 minutes ago)

TAF EKCH 200504Z 2006/2106 06005KT CAVOK TEMPO 2010/2015 FEW050CB